Time,TemperatureF,DewpointF,PressureIn,WindDirection,WindDirectionDegrees,WindSpeedMPH,WindSpeedGustMPH,Humidity,HourlyPrecipIn,Conditions,Clouds,dailyrainin,SoftwareType,DateUTC
2013-02-10 00:00:00,44.7,35.1,30.14,WNW,299,6.0,6.0,69,0.00,,,0.01,Wunderground v.1.13,2013-02-09 23:00:00,
2013-02-10 00:10:00,45.2,35.6,30.14,West,274,5.0,5.0,69,0.00,,,0.02,Wunderground v.1.13,2013-02-09 23:10:00,
2013-02-10 01:55:00,47.7,40.2,30.11,WNW,293,2.0,4.0,75,0.00,,,0.00,Wunderground v.1.13,2013-02-10 00:55:00,
2013-02-10 02:00:00,47.8,40.3,30.11,West,270,5.0,7.0,75,0.00,,,0.00,Wunderground v.1.13,2013-02-10 01:00:00,
2013-02-10 02:05:00,47.9,40.4,30.11,WNW,293,6.0,14.0,75,0.00,,,0.00,Wunderground v.1.13,2013-02-10 01:05:00,
2013-02-10 02:10:00,48.1,40.5,30.11,North,0,5.0,8.0,75,0.00,,,0.00,Wunderground v.1.13,2013-02-10 01:10:00,
2013-02-10 02:15:00,48.0,40.8,30.10,West,270,2.0,6.0,76,0.00,,,0.00,Wunderground v.1.13,2013-02-10 01:15:00,
2013-02-10 02:20:00,48.1,40.9,30.10,WSW,248,7.0,13.0,76,0.00,,,0.00,Wunderground v.1.13,2013-02-10 01:20:00,
2013-02-10 02:25:00,48.1,40.9,30.10,WNW,293,5.0,9.0,76,0.00,,,0.00,Wunderground v.1.13,2013-02-10 01:25:00,
2013-02-10 02:30:00,48.2,41.0,30.10,West,270,7.0,13.0,76,0.00,,,0.00,Wunderground v.1.13,2013-02-10 01:30:00,
2013-02-10 02:35:00,48.3,41.1,30.10,West,270,2.0,6.0,76,0.00,,,0.00,Wunderground v.1.13,2013-02-10 01:35:00,
2013-02-10 02:40:00,48.3,41.1,30.10,WSW,248,4.0,7.0,76,0.00,,,0.00,Wunderground v.1.13,2013-02-10 01:40:00,
2013-02-10 02:45:00,48.6,41.0,30.09,West,270,2.0,5.0,75,0.00,,,0.00,Wunderground v.1.13,2013-02-10 01:45:00,
2013-02-10 02:50:00,48.7,41.1,30.09,North,0,6.0,8.0,75,0.00,,,0.00,Wunderground v.1.13,2013-02-10 01:50:00,
2013-02-10 02:55:00,48.9,41.3,30.09,West,270,3.0,6.0,75,0.00,,,0.00,Wunderground v.1.13,2013-02-10 01:55:00,
2013-02-10 03:00:00,49.0,41.1,30.09,West,270,5.0,7.0,74,0.00,,,0.00,Wunderground v.1.13,2013-02-10 02:00:00,
2013-02-10 03:05:00,49.0,41.1,30.09,WNW,293,2.0,4.0,74,0.00,,,0.00,Wunderground v.1.13,2013-02-10 02:05:00,
2013-02-10 03:10:00,48.8,41.2,30.09,West,270,2.0,5.0,75,0.00,,,0.00,Wunderground v.1.13,2013-02-10 02:10:00,
2013-02-10 03:15:00,48.8,41.2,30.09,WNW,293,5.0,7.0,75,0.00,,,0.00,Wunderground v.1.13,2013-02-10 02:15:00,
2013-02-10 03:20:00,48.8,41.2,30.09,North,0,6.0,8.0,75,0.00,,,0.00,Wunderground v.1.13,2013-02-10 02:20:00,
2013-02-10 03:25:00,48.7,41.1,30.09,NW,315,5.0,10.0,75,0.00,,,0.00,Wunderground v.1.13,2013-02-10 02:25:00,
2013-02-10 03:30:00,48.7,40.8,30.09,WNW,293,7.0,11.0,74,0.00,,,0.00,Wunderground v.1.13,2013-02-10 02:30:00,
2013-02-10 03:35:00,49.1,40.8,30.09,WNW,293,5.0,8.0,73,0.00,,,0.00,Wunderground v.1.13,2013-02-10 02:35:00,
2013-02-10 03:40:00,49.6,40.2,30.09,West,270,5.0,10.0,70,0.00,,,0.00,Wunderground v.1.13,2013-02-10 02:40:00,
2013-02-10 03:45:00,50.3,39.4,30.09,WNW,293,9.0,13.0,66,0.00,,,0.00,Wunderground v.1.13,2013-02-10 02:45:00,
2013-02-10 03:50:00,50.7,39.0,30.09,WNW,293,6.0,10.0,64,0.00,,,0.00,Wunderground v.1.13,2013-02-10 02:50:00,
2013-02-10 03:55:00,50.6,38.9,30.08,WNW,293,5.0,8.0,64,0.00,,,0.00,Wunderground v.1.13,2013-02-10 02:55:00,
2013-02-10 04:00:00,50.4,38.7,30.09,West,270,6.0,8.0,64,0.00,,,0.00,Wunderground v.1.13,2013-02-10 03:00:00,
2013-02-10 04:05:00,50.5,38.8,30.08,WNW,293,10.0,12.0,64,0.00,,,0.00,Wunderground v.1.13,2013-02-10 03:05:00,
2013-02-10 04:10:00,50.5,38.8,30.08,WNW,293,7.0,9.0,64,0.00,,,0.00,Wunderground v.1.13,2013-02-10 03:10:00,
2013-02-10 04:15:00,50.3,39.0,30.08,WNW,293,9.0,13.0,65,0.00,,,0.00,Wunderground v.1.13,2013-02-10 03:15:00,
2013-02-10 04:20:00,50.5,39.2,30.08,WNW,293,7.0,12.0,65,0.00,,,0.00,Wunderground v.1.13,2013-02-10 03:20:00,
2013-02-10 19:55:00,53.5,46.1,29.84,West,263,5.0,9.0,76,0.00,,,0.00,Wunderground v.1.13,2013-02-10 18:55:00,
2013-02-10 20:00:00,53.4,46.4,29.84,West,259,6.0,15.0,77,0.00,,,0.00,Wunderground v.1.13,2013-02-10 19:00:00,
2013-02-10 20:10:00,53.5,46.5,29.83,WSW,257,7.0,7.0,77,0.00,,,0.00,Wunderground v.1.13,2013-02-10 19:10:00,
2013-02-10 20:30:00,53.5,47.1,29.82,West,280,6.0,6.0,79,0.00,,,0.00,Wunderground v.1.13,2013-02-10 19:30:00,
2013-02-10 20:35:00,53.4,47.0,29.82,WNW,288,5.0,5.0,79,0.00,,,0.00,Wunderground v.1.13,2013-02-10 19:35:00,
2013-02-10 20:50:00,53.2,46.9,29.82,West,261,5.0,5.0,79,0.00,,,0.00,Wunderground v.1.13,2013-02-10 19:50:00,
2013-02-10 20:55:00,53.2,46.9,29.81,WNW,287,5.0,11.0,79,0.00,,,0.00,Wunderground v.1.13,2013-02-10 19:55:00,
2013-02-10 21:00:00,53.3,47.0,29.81,North,360,5.0,5.0,79,0.00,,,0.00,Wunderground v.1.13,2013-02-10 20:00:00,
2013-02-10 21:10:00,53.3,47.0,29.81,North,360,5.0,7.0,79,0.00,,,0.00,Wunderground v.1.13,2013-02-10 20:10:00,
2013-02-10 23:00:00,53.7,48.3,29.71,North,0,6.0,10.0,82,0.00,,,0.00,Wunderground v.1.13,2013-02-10 22:00:00,
2013-02-10 23:05:00,53.7,48.3,29.70,West,270,7.0,10.0,82,0.00,,,0.00,Wunderground v.1.13,2013-02-10 22:05:00,
2013-02-10 23:10:00,53.8,48.4,29.70,WNW,293,6.0,9.0,82,0.00,,,0.00,Wunderground v.1.13,2013-02-10 22:10:00,
2013-02-10 23:15:00,53.8,48.4,29.70,North,0,7.0,10.0,82,0.00,,,0.00,Wunderground v.1.13,2013-02-10 22:15:00,
2013-02-10 23:20:00,53.9,48.5,29.70,WNW,293,8.0,12.0,82,0.00,,,0.00,Wunderground v.1.13,2013-02-10 22:20:00,
2013-02-10 23:25:00,54.0,48.3,29.70,WNW,293,6.0,12.0,81,0.00,,,0.00,Wunderground v.1.13,2013-02-10 22:25:00,
2013-02-10 23:30:00,54.1,48.4,29.70,North,0,6.0,8.0,81,0.00,,,0.00,Wunderground v.1.13,2013-02-10 22:30:00,
2013-02-10 23:35:00,54.1,48.4,29.69,West,270,8.0,15.0,81,0.00,,,0.00,Wunderground v.1.13,2013-02-10 22:35:00,
2013-02-10 23:40:00,54.2,48.5,29.70,WNW,293,6.0,8.0,81,0.00,,,0.00,Wunderground v.1.13,2013-02-10 22:40:00,
2013-02-10 23:45:00,54.1,48.4,29.69,North,0,7.0,12.0,81,0.00,,,0.00,Wunderground v.1.13,2013-02-10 22:45:00,
2013-02-10 23:50:00,54.1,48.4,29.69,West,270,4.0,10.0,81,0.00,,,0.00,Wunderground v.1.13,2013-02-10 22:50:00,
2013-02-10 23:55:00,54.1,48.1,29.69,North,0,5.0,6.0,80,0.00,,,0.00,Wunderground v.1.13,2013-02-10 22:55:00,